sensor_id;sensor_type;location;lat;lon;timestamp;temperature;humidity
17200;DHT22;8716;52.268;20.968;2022-10-29T00:01:07;15.80;99.90
17200;DHT22;8716;52.268;20.968;2022-10-29T00:03:36;15.80;99.90
17200;DHT22;8716;52.268;20.968;2022-10-29T00:06:06;15.80;99.90
17200;DHT22;8716;52.268;20.968;2022-10-29T00:08:36;15.80;99.90
17200;DHT22;8716;52.268;20.968;2022-10-29T00:11:05;15.80;99.90
17200;DHT22;8716;52.268;20.968;2022-10-29T00:13:34;15.70;99.90
17200;DHT22;8716;52.268;20.968;2022-10-29T00:16:06;15.70;99.90
17200;DHT22;8716;52.268;20.968;2022-10-29T00:18:34;15.70;99.90
17200;DHT22;8716;52.268;20.968;2022-10-29T00:21:03;15.70;99.90
17200;DHT22;8716;52.268;20.968;2022-10-29T00:23:32;15.70;99.90
17200;DHT22;8716;52.268;20.968;2022-10-29T00:26:01;15.60;99.90
17200;DHT22;8716;52.268;20.968;2022-10-29T00:28:30;15.60;99.90
17200;DHT22;8716;52.268;20.968;2022-10-29T00:31:02;15.60;99.90
17200;DHT22;8716;52.268;20.968;2022-10-29T00:33:32;15.60;99.90
17200;DHT22;8716;52.268;20.968;2022-10-29T00:36:02;15.60;99.90
17200;DHT22;8716;52.268;20.968;2022-10-29T00:38:32;15.50;99.90
17200;DHT22;8716;52.268;20.968;2022-10-29T00:41:01;15.50;99.90
17200;DHT22;8716;52.268;20.968;2022-10-29T00:43:33;15.50;99.90
17200;DHT22;8716;52.268;20.968;2022-10-29T00:46:04;15.40;99.90
17200;DHT22;8716;52.268;20.968;2022-10-29T00:48:39;15.40;99.90
17200;DHT22;8716;52.268;20.968;2022-10-29T00:51:11;15.30;99.90
17200;DHT22;8716;52.268;20.968;2022-10-29T00:53:43;15.30;99.90
17200;DHT22;8716;52.268;20.968;2022-10-29T00:56:13;15.30;99.90
17200;DHT22;8716;52.268;20.968;2022-10-29T00:58:42;15.30;99.90
17200;DHT22;8716;52.268;20.968;2022-10-29T01:01:11;15.30;99.90
17200;DHT22;8716;52.268;20.968;2022-10-29T01:03:41;15.20;99.90
17200;DHT22;8716;52.268;20.968;2022-10-29T01:06:10;15.20;99.90
17200;DHT22;8716;52.268;20.968;2022-10-29T01:08:41;15.20;99.90
17200;DHT22;8716;52.268;20.968;2022-10-29T01:11:15;15.20;99.90
17200;DHT22;8716;52.268;20.968;2022-10-29T01:13:57;15.20;99.90
17200;DHT22;8716;52.268;20.968;2022-10-29T01:16:36;15.20;99.90
17200;DHT22;8716;52.268;20.968;2022-10-29T01:19:13;15.10;99.90
17200;DHT22;8716;52.268;20.968;2022-10-29T01:21:47;15.10;99.90
17200;DHT22;8716;52.268;20.968;2022-10-29T01:24:58;15.10;99.90
17200;DHT22;8716;52.268;20.968;2022-10-29T01:27:52;15.10;99.90
17200;DHT22;8716;52.268;20.968;2022-10-29T01:30:56;15.10;99.90
17200;DHT22;8716;52.268;20.968;2022-10-29T01:33:31;15.10;99.90
17200;DHT22;8716;52.268;20.968;2022-10-29T01:36:06;15.10;99.90
17200;DHT22;8716;52.268;20.968;2022-10-29T01:38:43;15.10;99.90
17200;DHT22;8716;52.268;20.968;2022-10-29T01:41:18;15.00;99.90
17200;DHT22;8716;52.268;20.968;2022-10-29T01:43:52;15.00;99.90
17200;DHT22;8716;52.268;20.968;2022-10-29T01:46:24;15.00;99.90
17200;DHT22;8716;52.268;20.968;2022-10-29T01:48:57;15.00;99.90
17200;DHT22;8716;52.268;20.968;2022-10-29T01:51:31;15.00;99.90
17200;DHT22;8716;52.268;20.968;2022-10-29T01:54:00;15.00;99.90
17200;DHT22;8716;52.268;20.968;2022-10-29T01:56:32;15.00;99.90
17200;DHT22;8716;52.268;20.968;2022-10-29T01:59:03;15.00;99.90
17200;DHT22;8716;52.268;20.968;2022-10-29T02:01:44;15.00;99.90
17200;DHT22;8716;52.268;20.968;2022-10-29T02:04:32;15.00;99.90
17200;DHT22;8716;52.268;20.968;2022-10-29T02:07:13;15.00;99.90
17200;DHT22;8716;52.268;20.968;2022-10-29T02:09:56;15.00;99.90
17200;DHT22;8716;52.268;20.968;2022-10-29T02:12:30;15.00;99.90
17200;DHT22;8716;52.268;20.968;2022-10-29T02:15:03;15.00;99.90
17200;DHT22;8716;52.268;20.968;2022-10-29T02:17:33;15.00;99.90
17200;DHT22;8716;52.268;20.968;2022-10-29T02:20:03;15.00;99.90
17200;DHT22;8716;52.268;20.968;2022-10-29T02:22:32;15.00;99.90
17200;DHT22;8716;52.268;20.968;2022-10-29T02:25:00;15.00;99.90
17200;DHT22;8716;52.268;20.968;2022-10-29T02:27:31;15.00;99.90
17200;DHT22;8716;52.268;20.968;2022-10-29T02:29:59;15.00;99.90
17200;DHT22;8716;52.268;20.968;2022-10-29T02:32:28;15.00;99.90
17200;DHT22;8716;52.268;20.968;2022-10-29T02:35:00;15.00;99.90
17200;DHT22;8716;52.268;20.968;2022-10-29T02:37:29;15.00;99.90
17200;DHT22;8716;52.268;20.968;2022-10-29T02:39:57;15.00;99.90
17200;DHT22;8716;52.268;20.968;2022-10-29T02:42:25;15.00;99.90
17200;DHT22;8716;52.268;20.968;2022-10-29T02:44:53;15.00;99.90
17200;DHT22;8716;52.268;20.968;2022-10-29T02:47:22;15.00;99.90
17200;DHT22;8716;52.268;20.968;2022-10-29T02:49:50;15.00;99.90
17200;DHT22;8716;52.268;20.968;2022-10-29T02:52:19;15.00;99.90
17200;DHT22;8716;52.268;20.968;2022-10-29T02:54:48;15.00;99.90
17200;DHT22;8716;52.268;20.968;2022-10-29T02:57:16;15.00;99.90
17200;DHT22;8716;52.268;20.968;2022-10-29T02:59:44;15.00;99.90
17200;DHT22;8716;52.268;20.968;2022-10-29T03:02:13;15.00;99.90
17200;DHT22;8716;52.268;20.968;2022-10-29T03:04:41;14.90;99.90
17200;DHT22;8716;52.268;20.968;2022-10-29T03:07:10;14.90;99.90
17200;DHT22;8716;52.268;20.968;2022-10-29T03:09:40;15.00;99.90
17200;DHT22;8716;52.268;20.968;2022-10-29T03:12:08;15.00;99.90
17200;DHT22;8716;52.268;20.968;2022-10-29T03:14:36;15.00;99.90
17200;DHT22;8716;52.268;20.968;2022-10-29T03:17:05;15.00;99.90
17200;DHT22;8716;52.268;20.968;2022-10-29T03:19:35;15.00;99.90
17200;DHT22;8716;52.268;20.968;2022-10-29T03:22:03;15.00;99.90
17200;DHT22;8716;52.268;20.968;2022-10-29T03:24:32;14.90;99.90
17200;DHT22;8716;52.268;20.968;2022-10-29T03:27:01;15.00;99.90
17200;DHT22;8716;52.268;20.968;2022-10-29T03:29:30;15.00;99.90
17200;DHT22;8716;52.268;20.968;2022-10-29T03:31:58;15.00;99.90
17200;DHT22;8716;52.268;20.968;2022-10-29T03:34:26;15.00;99.90
17200;DHT22;8716;52.268;20.968;2022-10-29T03:36:54;15.00;99.90
17200;DHT22;8716;52.268;20.968;2022-10-29T03:39:25;15.10;99.90
17200;DHT22;8716;52.268;20.968;2022-10-29T03:41:53;15.00;99.90
17200;DHT22;8716;52.268;20.968;2022-10-29T03:44:23;15.10;99.90
17200;DHT22;8716;52.268;20.968;2022-10-29T03:46:51;15.10;99.90
17200;DHT22;8716;52.268;20.968;2022-10-29T03:49:19;15.10;99.90
17200;DHT22;8716;52.268;20.968;2022-10-29T03:51:47;15.10;99.90
17200;DHT22;8716;52.268;20.968;2022-10-29T03:54:15;15.10;99.90
17200;DHT22;8716;52.268;20.968;2022-10-29T03:56:44;15.10;99.90
17200;DHT22;8716;52.268;20.968;2022-10-29T03:59:12;15.10;99.90
17200;DHT22;8716;52.268;20.968;2022-10-29T04:01:41;15.10;99.90
17200;DHT22;8716;52.268;20.968;2022-10-29T04:04:12;15.10;99.90
17200;DHT22;8716;52.268;20.968;2022-10-29T04:06:41;15.10;99.90
17200;DHT22;8716;52.268;20.968;2022-10-29T04:09:09;15.10;99.90
17200;DHT22;8716;52.268;20.968;2022-10-29T04:11:37;15.10;99.90
17200;DHT22;8716;52.268;20.968;2022-10-29T04:14:05;15.10;99.90
17200;DHT22;8716;52.268;20.968;2022-10-29T04:16:34;15.10;99.90
17200;DHT22;8716;52.268;20.968;2022-10-29T04:19:03;15.10;99.90
17200;DHT22;8716;52.268;20.968;2022-10-29T04:21:32;15.10;99.90
17200;DHT22;8716;52.268;20.968;2022-10-29T04:24:20;15.20;99.90
17200;DHT22;8716;52.268;20.968;2022-10-29T04:27:08;15.20;99.90
17200;DHT22;8716;52.268;20.968;2022-10-29T04:29:56;15.10;99.90
17200;DHT22;8716;52.268;20.968;2022-10-29T04:32:25;15.20;99.90
17200;DHT22;8716;52.268;20.968;2022-10-29T04:34:55;15.20;99.90
17200;DHT22;8716;52.268;20.968;2022-10-29T04:37:23;15.20;99.90
17200;DHT22;8716;52.268;20.968;2022-10-29T04:39:52;15.20;99.90
17200;DHT22;8716;52.268;20.968;2022-10-29T04:42:20;15.20;99.90
17200;DHT22;8716;52.268;20.968;2022-10-29T04:44:48;15.20;99.90
17200;DHT22;8716;52.268;20.968;2022-10-29T04:47:16;15.20;99.90
17200;DHT22;8716;52.268;20.968;2022-10-29T04:49:45;15.20;99.90
17200;DHT22;8716;52.268;20.968;2022-10-29T04:52:14;15.20;99.90
17200;DHT22;8716;52.268;20.968;2022-10-29T04:54:42;15.30;99.90
17200;DHT22;8716;52.268;20.968;2022-10-29T04:57:11;15.30;99.90
17200;DHT22;8716;52.268;20.968;2022-10-29T04:59:39;15.30;99.90
17200;DHT22;8716;52.268;20.968;2022-10-29T05:02:08;15.30;99.90
17200;DHT22;8716;52.268;20.968;2022-10-29T05:04:36;15.20;99.90
17200;DHT22;8716;52.268;20.968;2022-10-29T05:07:05;15.30;99.90
17200;DHT22;8716;52.268;20.968;2022-10-29T05:09:34;15.30;99.90
17200;DHT22;8716;52.268;20.968;2022-10-29T05:12:03;15.30;99.90
17200;DHT22;8716;52.268;20.968;2022-10-29T05:14:31;15.30;99.90
17200;DHT22;8716;52.268;20.968;2022-10-29T05:17:00;15.30;99.90
17200;DHT22;8716;52.268;20.968;2022-10-29T05:19:28;15.30;99.90
17200;DHT22;8716;52.268;20.968;2022-10-29T05:21:56;15.30;99.90
17200;DHT22;8716;52.268;20.968;2022-10-29T05:24:24;15.30;99.90
17200;DHT22;8716;52.268;20.968;2022-10-29T05:26:54;15.30;99.90
17200;DHT22;8716;52.268;20.968;2022-10-29T05:29:22;15.30;99.90
17200;DHT22;8716;52.268;20.968;2022-10-29T05:31:52;15.30;99.90
17200;DHT22;8716;52.268;20.968;2022-10-29T05:34:20;15.30;99.90
17200;DHT22;8716;52.268;20.968;2022-10-29T05:36:48;15.30;99.90
17200;DHT22;8716;52.268;20.968;2022-10-29T05:39:16;15.30;99.90
17200;DHT22;8716;52.268;20.968;2022-10-29T05:41:45;15.30;99.90
17200;DHT22;8716;52.268;20.968;2022-10-29T05:44:14;15.30;99.90
17200;DHT22;8716;52.268;20.968;2022-10-29T05:46:43;15.30;99.90
17200;DHT22;8716;52.268;20.968;2022-10-29T05:49:11;15.30;99.90
17200;DHT22;8716;52.268;20.968;2022-10-29T05:51:39;15.30;99.90
17200;DHT22;8716;52.268;20.968;2022-10-29T05:54:07;15.40;99.90
17200;DHT22;8716;52.268;20.968;2022-10-29T05:56:35;15.40;99.90
17200;DHT22;8716;52.268;20.968;2022-10-29T05:59:04;15.40;99.90
17200;DHT22;8716;52.268;20.968;2022-10-29T06:01:33;15.40;99.90
17200;DHT22;8716;52.268;20.968;2022-10-29T06:04:02;15.40;99.90
17200;DHT22;8716;52.268;20.968;2022-10-29T06:06:30;15.40;99.90
17200;DHT22;8716;52.268;20.968;2022-10-29T06:08:58;15.40;99.90
17200;DHT22;8716;52.268;20.968;2022-10-29T06:11:26;15.40;99.90
17200;DHT22;8716;52.268;20.968;2022-10-29T06:13:55;15.40;99.90
17200;DHT22;8716;52.268;20.968;2022-10-29T06:16:23;15.40;99.90
17200;DHT22;8716;52.268;20.968;2022-10-29T06:18:53;15.40;99.90
17200;DHT22;8716;52.268;20.968;2022-10-29T06:21:22;15.40;99.90
17200;DHT22;8716;52.268;20.968;2022-10-29T06:23:50;15.40;99.90
17200;DHT22;8716;52.268;20.968;2022-10-29T06:26:19;15.40;99.90
17200;DHT22;8716;52.268;20.968;2022-10-29T06:28:48;15.40;99.90
17200;DHT22;8716;52.268;20.968;2022-10-29T06:31:16;15.50;99.90
17200;DHT22;8716;52.268;20.968;2022-10-29T06:33:45;15.40;99.90
17200;DHT22;8716;52.268;20.968;2022-10-29T06:36:14;15.50;99.90
17200;DHT22;8716;52.268;20.968;2022-10-29T06:38:42;15.50;99.90
17200;DHT22;8716;52.268;20.968;2022-10-29T06:41:11;15.50;99.90
17200;DHT22;8716;52.268;20.968;2022-10-29T06:43:39;15.50;99.90
17200;DHT22;8716;52.268;20.968;2022-10-29T06:46:07;15.60;99.90
17200;DHT22;8716;52.268;20.968;2022-10-29T06:48:36;15.60;99.90
17200;DHT22;8716;52.268;20.968;2022-10-29T06:51:04;15.70;99.90
17200;DHT22;8716;52.268;20.968;2022-10-29T06:53:34;15.80;99.90
17200;DHT22;8716;52.268;20.968;2022-10-29T06:56:02;15.80;99.90
17200;DHT22;8716;52.268;20.968;2022-10-29T06:58:30;15.90;99.90
17200;DHT22;8716;52.268;20.968;2022-10-29T07:00:59;15.90;99.90
17200;DHT22;8716;52.268;20.968;2022-10-29T07:03:27;15.90;99.90
17200;DHT22;8716;52.268;20.968;2022-10-29T07:05:56;15.90;99.90
17200;DHT22;8716;52.268;20.968;2022-10-29T07:08:25;16.00;99.90
17200;DHT22;8716;52.268;20.968;2022-10-29T07:10:56;16.00;99.90
17200;DHT22;8716;52.268;20.968;2022-10-29T07:13:24;16.10;99.90
17200;DHT22;8716;52.268;20.968;2022-10-29T07:15:52;16.10;99.90
17200;DHT22;8716;52.268;20.968;2022-10-29T07:18:20;16.10;99.90
17200;DHT22;8716;52.268;20.968;2022-10-29T07:20:49;16.10;99.90
17200;DHT22;8716;52.268;20.968;2022-10-29T07:23:19;16.20;99.90
17200;DHT22;8716;52.268;20.968;2022-10-29T07:25:51;16.30;99.90
17200;DHT22;8716;52.268;20.968;2022-10-29T07:28:22;16.30;99.90
17200;DHT22;8716;52.268;20.968;2022-10-29T07:30:58;16.30;99.90
17200;DHT22;8716;52.268;20.968;2022-10-29T07:33:27;16.40;99.90
17200;DHT22;8716;52.268;20.968;2022-10-29T07:35:58;16.40;99.90
17200;DHT22;8716;52.268;20.968;2022-10-29T07:38:26;16.40;99.90
17200;DHT22;8716;52.268;20.968;2022-10-29T07:40:55;16.50;99.90
17200;DHT22;8716;52.268;20.968;2022-10-29T07:43:24;16.50;99.90
17200;DHT22;8716;52.268;20.968;2022-10-29T07:45:52;16.50;99.90
17200;DHT22;8716;52.268;20.968;2022-10-29T07:48:20;16.60;99.90
17200;DHT22;8716;52.268;20.968;2022-10-29T07:50:49;16.60;99.90
17200;DHT22;8716;52.268;20.968;2022-10-29T07:53:17;16.70;99.90
17200;DHT22;8716;52.268;20.968;2022-10-29T07:55:51;16.80;99.90
17200;DHT22;8716;52.268;20.968;2022-10-29T07:58:20;16.80;99.90
17200;DHT22;8716;52.268;20.968;2022-10-29T08:00:51;17.00;99.90
17200;DHT22;8716;52.268;20.968;2022-10-29T08:03:20;17.00;99.90
17200;DHT22;8716;52.268;20.968;2022-10-29T08:05:48;17.10;99.90
17200;DHT22;8716;52.268;20.968;2022-10-29T08:08:22;17.10;99.90
17200;DHT22;8716;52.268;20.968;2022-10-29T08:10:50;17.20;99.90
17200;DHT22;8716;52.268;20.968;2022-10-29T08:13:18;17.40;99.90
17200;DHT22;8716;52.268;20.968;2022-10-29T08:15:47;17.60;99.90
17200;DHT22;8716;52.268;20.968;2022-10-29T08:18:17;18.20;99.90
17200;DHT22;8716;52.268;20.968;2022-10-29T08:20:45;18.80;99.90
17200;DHT22;8716;52.268;20.968;2022-10-29T08:23:14;19.50;99.90
17200;DHT22;8716;52.268;20.968;2022-10-29T08:25:43;20.00;99.90
17200;DHT22;8716;52.268;20.968;2022-10-29T08:28:13;20.30;99.90
17200;DHT22;8716;52.268;20.968;2022-10-29T08:30:42;20.60;99.90
17200;DHT22;8716;52.268;20.968;2022-10-29T08:33:11;20.70;99.90
17200;DHT22;8716;52.268;20.968;2022-10-29T08:35:42;20.70;99.90
17200;DHT22;8716;52.268;20.968;2022-10-29T08:38:10;20.70;99.90
17200;DHT22;8716;52.268;20.968;2022-10-29T08:40:49;20.70;99.90
17200;DHT22;8716;52.268;20.968;2022-10-29T08:43:35;20.60;99.90
17200;DHT22;8716;52.268;20.968;2022-10-29T08:46:18;20.60;99.90
17200;DHT22;8716;52.268;20.968;2022-10-29T08:48:52;20.70;99.90
17200;DHT22;8716;52.268;20.968;2022-10-29T08:51:27;20.90;99.90
17200;DHT22;8716;52.268;20.968;2022-10-29T08:53:56;21.20;99.90
17200;DHT22;8716;52.268;20.968;2022-10-29T08:56:47;21.60;99.90
17200;DHT22;8716;52.268;20.968;2022-10-29T08:59:19;22.00;99.90
17200;DHT22;8716;52.268;20.968;2022-10-29T09:01:49;22.20;99.90
17200;DHT22;8716;52.268;20.968;2022-10-29T09:04:24;22.40;99.90
17200;DHT22;8716;52.268;20.968;2022-10-29T09:07:07;22.50;99.90
17200;DHT22;8716;52.268;20.968;2022-10-29T09:09:39;22.60;99.90
17200;DHT22;8716;52.268;20.968;2022-10-29T09:12:32;22.60;99.90
17200;DHT22;8716;52.268;20.968;2022-10-29T09:15:17;22.40;99.90
17200;DHT22;8716;52.268;20.968;2022-10-29T09:18:07;22.20;99.90
17200;DHT22;8716;52.268;20.968;2022-10-29T09:20:45;21.80;99.90
17200;DHT22;8716;52.268;20.968;2022-10-29T09:23:24;21.60;99.90
17200;DHT22;8716;52.268;20.968;2022-10-29T09:26:00;21.30;99.90
17200;DHT22;8716;52.268;20.968;2022-10-29T09:28:38;21.10;99.90
17200;DHT22;8716;52.268;20.968;2022-10-29T09:31:18;21.00;99.90
17200;DHT22;8716;52.268;20.968;2022-10-29T09:33:51;20.90;99.90
17200;DHT22;8716;52.268;20.968;2022-10-29T09:36:28;20.90;99.90
17200;DHT22;8716;52.268;20.968;2022-10-29T09:39:01;20.80;99.90
17200;DHT22;8716;52.268;20.968;2022-10-29T09:41:31;20.60;99.90
17200;DHT22;8716;52.268;20.968;2022-10-29T09:44:05;20.70;99.90
17200;DHT22;8716;52.268;20.968;2022-10-29T09:46:43;20.60;99.90
17200;DHT22;8716;52.268;20.968;2022-10-29T09:49:24;20.50;99.90
17200;DHT22;8716;52.268;20.968;2022-10-29T09:52:01;20.60;99.90
17200;DHT22;8716;52.268;20.968;2022-10-29T09:54:32;20.60;99.90
17200;DHT22;8716;52.268;20.968;2022-10-29T09:57:02;20.50;99.90
17200;DHT22;8716;52.268;20.968;2022-10-29T09:59:33;20.40;99.90
17200;DHT22;8716;52.268;20.968;2022-10-29T10:02:23;20.30;99.90
17200;DHT22;8716;52.268;20.968;2022-10-29T10:04:56;20.20;99.90
17200;DHT22;8716;52.268;20.968;2022-10-29T10:07:25;20.10;99.90
17200;DHT22;8716;52.268;20.968;2022-10-29T10:09:57;20.00;99.90
17200;DHT22;8716;52.268;20.968;2022-10-29T10:12:27;19.80;99.90
17200;DHT22;8716;52.268;20.968;2022-10-29T10:15:06;19.70;99.90
17200;DHT22;8716;52.268;20.968;2022-10-29T10:17:58;19.60;99.90
17200;DHT22;8716;52.268;20.968;2022-10-29T10:20:31;19.60;99.90
17200;DHT22;8716;52.268;20.968;2022-10-29T10:22:59;19.60;99.90
17200;DHT22;8716;52.268;20.968;2022-10-29T10:25:34;19.50;99.90
17200;DHT22;8716;52.268;20.968;2022-10-29T10:28:17;19.50;99.90
17200;DHT22;8716;52.268;20.968;2022-10-29T10:31:05;19.60;99.90
17200;DHT22;8716;52.268;20.968;2022-10-29T10:33:35;19.40;99.90
17200;DHT22;8716;52.268;20.968;2022-10-29T10:36:05;19.30;99.90
17200;DHT22;8716;52.268;20.968;2022-10-29T10:38:41;19.40;99.90
17200;DHT22;8716;52.268;20.968;2022-10-29T10:41:13;19.40;99.90
17200;DHT22;8716;52.268;20.968;2022-10-29T10:43:44;19.40;99.90
17200;DHT22;8716;52.268;20.968;2022-10-29T10:46:19;19.30;99.90
17200;DHT22;8716;52.268;20.968;2022-10-29T10:48:57;19.30;99.90
17200;DHT22;8716;52.268;20.968;2022-10-29T10:51:28;19.20;99.90
17200;DHT22;8716;52.268;20.968;2022-10-29T10:53:57;19.20;99.90
17200;DHT22;8716;52.268;20.968;2022-10-29T10:56:28;19.20;99.90
17200;DHT22;8716;52.268;20.968;2022-10-29T10:59:06;19.30;99.90
17200;DHT22;8716;52.268;20.968;2022-10-29T11:01:41;19.30;99.90
17200;DHT22;8716;52.268;20.968;2022-10-29T11:04:14;19.30;99.90
17200;DHT22;8716;52.268;20.968;2022-10-29T11:06:47;19.30;99.90
17200;DHT22;8716;52.268;20.968;2022-10-29T11:09:21;19.40;99.90
17200;DHT22;8716;52.268;20.968;2022-10-29T11:11:57;19.40;99.90
17200;DHT22;8716;52.268;20.968;2022-10-29T11:14:30;19.40;99.90
17200;DHT22;8716;52.268;20.968;2022-10-29T11:17:01;19.40;99.90
17200;DHT22;8716;52.268;20.968;2022-10-29T11:19:34;19.40;99.90
17200;DHT22;8716;52.268;20.968;2022-10-29T11:22:11;19.40;99.90
17200;DHT22;8716;52.268;20.968;2022-10-29T11:24:48;19.40;99.90
17200;DHT22;8716;52.268;20.968;2022-10-29T11:27:28;19.40;99.90
17200;DHT22;8716;52.268;20.968;2022-10-29T11:30:04;19.40;99.90
17200;DHT22;8716;52.268;20.968;2022-10-29T11:32:44;19.40;99.90
17200;DHT22;8716;52.268;20.968;2022-10-29T11:35:16;19.50;99.90
17200;DHT22;8716;52.268;20.968;2022-10-29T11:37:51;19.40;99.90
17200;DHT22;8716;52.268;20.968;2022-10-29T11:40:26;19.40;99.90
17200;DHT22;8716;52.268;20.968;2022-10-29T11:42:58;19.50;99.90
17200;DHT22;8716;52.268;20.968;2022-10-29T11:45:43;19.40;99.90
17200;DHT22;8716;52.268;20.968;2022-10-29T11:48:17;19.40;99.90
17200;DHT22;8716;52.268;20.968;2022-10-29T11:51:03;19.40;99.90
17200;DHT22;8716;52.268;20.968;2022-10-29T11:53:51;19.30;99.90
17200;DHT22;8716;52.268;20.968;2022-10-29T11:56:31;19.30;99.90
17200;DHT22;8716;52.268;20.968;2022-10-29T11:59:07;19.40;99.90
17200;DHT22;8716;52.268;20.968;2022-10-29T12:01:47;19.40;99.90
17200;DHT22;8716;52.268;20.968;2022-10-29T12:04:29;19.40;99.90
17200;DHT22;8716;52.268;20.968;2022-10-29T12:10:05;19.50;99.90
17200;DHT22;8716;52.268;20.968;2022-10-29T12:12:42;19.60;99.90
17200;DHT22;8716;52.268;20.968;2022-10-29T12:15:21;19.60;99.90
17200;DHT22;8716;52.268;20.968;2022-10-29T12:17:59;19.70;99.90
17200;DHT22;8716;52.268;20.968;2022-10-29T12:20:36;19.60;99.90
17200;DHT22;8716;52.268;20.968;2022-10-29T12:23:15;19.70;99.90
17200;DHT22;8716;52.268;20.968;2022-10-29T12:26:00;19.70;99.90
17200;DHT22;8716;52.268;20.968;2022-10-29T12:28:39;19.70;99.90
17200;DHT22;8716;52.268;20.968;2022-10-29T12:31:21;19.70;99.90
17200;DHT22;8716;52.268;20.968;2022-10-29T12:33:56;19.60;99.90
17200;DHT22;8716;52.268;20.968;2022-10-29T12:36:34;19.60;99.90
17200;DHT22;8716;52.268;20.968;2022-10-29T12:39:14;19.60;99.90
17200;DHT22;8716;52.268;20.968;2022-10-29T12:41:46;19.60;99.90
17200;DHT22;8716;52.268;20.968;2022-10-29T12:44:21;19.50;99.90
17200;DHT22;8716;52.268;20.968;2022-10-29T12:46:58;19.50;99.90
17200;DHT22;8716;52.268;20.968;2022-10-29T12:49:41;19.50;99.90
17200;DHT22;8716;52.268;20.968;2022-10-29T12:52:17;19.50;99.90
17200;DHT22;8716;52.268;20.968;2022-10-29T12:54:49;19.40;99.90
17200;DHT22;8716;52.268;20.968;2022-10-29T12:57:30;19.40;99.90
17200;DHT22;8716;52.268;20.968;2022-10-29T13:00:32;19.30;99.90
17200;DHT22;8716;52.268;20.968;2022-10-29T13:03:02;19.30;99.90
17200;DHT22;8716;52.268;20.968;2022-10-29T13:05:37;19.30;99.90
17200;DHT22;8716;52.268;20.968;2022-10-29T13:08:28;19.20;99.90
17200;DHT22;8716;52.268;20.968;2022-10-29T13:11:00;19.20;99.90
17200;DHT22;8716;52.268;20.968;2022-10-29T13:16:28;19.10;99.90
17200;DHT22;8716;52.268;20.968;2022-10-29T13:19:17;19.10;99.90
17200;DHT22;8716;52.268;20.968;2022-10-29T13:22:00;19.10;99.90
17200;DHT22;8716;52.268;20.968;2022-10-29T13:24:29;19.20;99.90
17200;DHT22;8716;52.268;20.968;2022-10-29T13:27:03;19.10;99.90
17200;DHT22;8716;52.268;20.968;2022-10-29T13:29:43;19.00;99.90
17200;DHT22;8716;52.268;20.968;2022-10-29T13:32:32;18.90;99.90
17200;DHT22;8716;52.268;20.968;2022-10-29T13:35:04;18.80;99.90
17200;DHT22;8716;52.268;20.968;2022-10-29T13:37:48;18.80;99.90
17200;DHT22;8716;52.268;20.968;2022-10-29T13:43:22;18.80;99.90
17200;DHT22;8716;52.268;20.968;2022-10-29T13:46:01;18.70;99.90
17200;DHT22;8716;52.268;20.968;2022-10-29T13:48:33;18.70;99.90
17200;DHT22;8716;52.268;20.968;2022-10-29T13:51:06;18.60;99.90
17200;DHT22;8716;52.268;20.968;2022-10-29T13:53:40;18.60;99.90
17200;DHT22;8716;52.268;20.968;2022-10-29T13:56:15;18.50;99.90
17200;DHT22;8716;52.268;20.968;2022-10-29T13:58:47;18.50;99.90
17200;DHT22;8716;52.268;20.968;2022-10-29T14:01:20;18.50;99.90
17200;DHT22;8716;52.268;20.968;2022-10-29T14:03:58;18.40;99.90
17200;DHT22;8716;52.268;20.968;2022-10-29T14:06:32;18.50;99.90
17200;DHT22;8716;52.268;20.968;2022-10-29T14:09:10;18.50;99.90
17200;DHT22;8716;52.268;20.968;2022-10-29T14:11:42;18.40;99.90
17200;DHT22;8716;52.268;20.968;2022-10-29T14:14:24;18.40;99.90
17200;DHT22;8716;52.268;20.968;2022-10-29T14:17:08;18.40;99.90
17200;DHT22;8716;52.268;20.968;2022-10-29T14:19:42;18.40;99.90
17200;DHT22;8716;52.268;20.968;2022-10-29T14:22:35;18.30;99.90
17200;DHT22;8716;52.268;20.968;2022-10-29T14:25:29;18.30;99.90
17200;DHT22;8716;52.268;20.968;2022-10-29T14:28:09;18.20;99.90
17200;DHT22;8716;52.268;20.968;2022-10-29T14:30:37;18.20;99.90
17200;DHT22;8716;52.268;20.968;2022-10-29T14:33:22;18.20;99.90
17200;DHT22;8716;52.268;20.968;2022-10-29T14:35:52;18.10;99.90
17200;DHT22;8716;52.268;20.968;2022-10-29T14:38:29;18.10;99.90
17200;DHT22;8716;52.268;20.968;2022-10-29T14:40:59;18.10;99.90
17200;DHT22;8716;52.268;20.968;2022-10-29T14:43:29;18.00;99.90
17200;DHT22;8716;52.268;20.968;2022-10-29T14:46:09;17.90;99.90
17200;DHT22;8716;52.268;20.968;2022-10-29T14:48:45;17.90;99.90
17200;DHT22;8716;52.268;20.968;2022-10-29T14:51:20;17.90;99.90
17200;DHT22;8716;52.268;20.968;2022-10-29T14:53:57;17.80;99.90
17200;DHT22;8716;52.268;20.968;2022-10-29T14:56:32;17.70;99.90
17200;DHT22;8716;52.268;20.968;2022-10-29T14:59:11;17.60;99.90
17200;DHT22;8716;52.268;20.968;2022-10-29T15:01:52;17.50;99.90
17200;DHT22;8716;52.268;20.968;2022-10-29T15:04:31;17.50;99.90
17200;DHT22;8716;52.268;20.968;2022-10-29T15:07:27;17.40;99.90
17200;DHT22;8716;52.268;20.968;2022-10-29T15:10:16;17.30;99.90
17200;DHT22;8716;52.268;20.968;2022-10-29T15:12:46;17.30;99.90
17200;DHT22;8716;52.268;20.968;2022-10-29T15:15:23;17.20;99.90
17200;DHT22;8716;52.268;20.968;2022-10-29T15:17:55;17.20;99.90
17200;DHT22;8716;52.268;20.968;2022-10-29T15:20:31;17.10;99.90
17200;DHT22;8716;52.268;20.968;2022-10-29T15:23:00;17.00;99.90
17200;DHT22;8716;52.268;20.968;2022-10-29T15:25:32;16.90;99.90
17200;DHT22;8716;52.268;20.968;2022-10-29T15:28:01;16.90;99.90
17200;DHT22;8716;52.268;20.968;2022-10-29T15:30:35;16.80;99.90
17200;DHT22;8716;52.268;20.968;2022-10-29T15:33:05;16.80;99.90
17200;DHT22;8716;52.268;20.968;2022-10-29T15:35:34;16.80;99.90
17200;DHT22;8716;52.268;20.968;2022-10-29T15:38:03;16.70;99.90
17200;DHT22;8716;52.268;20.968;2022-10-29T15:40:33;16.70;99.90
17200;DHT22;8716;52.268;20.968;2022-10-29T15:43:25;16.60;99.90
17200;DHT22;8716;52.268;20.968;2022-10-29T15:45:55;16.60;99.90
17200;DHT22;8716;52.268;20.968;2022-10-29T15:48:28;16.50;99.90
17200;DHT22;8716;52.268;20.968;2022-10-29T15:51:02;16.50;99.90
17200;DHT22;8716;52.268;20.968;2022-10-29T15:53:31;16.50;99.90
17200;DHT22;8716;52.268;20.968;2022-10-29T15:56:00;16.40;99.90
17200;DHT22;8716;52.268;20.968;2022-10-29T15:58:29;16.40;99.90
17200;DHT22;8716;52.268;20.968;2022-10-29T16:00:59;16.40;99.90
17200;DHT22;8716;52.268;20.968;2022-10-29T16:03:28;16.30;99.90
17200;DHT22;8716;52.268;20.968;2022-10-29T16:06:02;16.30;99.90
17200;DHT22;8716;52.268;20.968;2022-10-29T16:08:33;16.30;99.90
17200;DHT22;8716;52.268;20.968;2022-10-29T16:11:06;16.20;99.90
17200;DHT22;8716;52.268;20.968;2022-10-29T16:13:35;16.20;99.90
17200;DHT22;8716;52.268;20.968;2022-10-29T16:16:04;16.20;99.90